createdAt,value
2018-11-25T00:00:01.856Z,19.03
2018-11-25T00:02:29.927Z,17.37
2018-11-25T00:04:58.106Z,18.00
2018-11-25T00:07:26.213Z,16.17
2018-11-25T00:09:54.282Z,17.57
2018-11-25T00:12:22.680Z,18.73
2018-11-25T00:14:50.807Z,19.13
2018-11-25T00:17:18.940Z,18.70
2018-11-25T00:19:47.015Z,18.77
2018-11-25T00:22:15.131Z,17.67
2018-11-25T00:24:43.244Z,17.80
2018-11-25T00:27:11.403Z,19.00
2018-11-25T00:29:39.475Z,18.47
2018-11-25T00:32:07.591Z,16.80
2018-11-25T00:34:35.644Z,17.67
2018-11-25T00:37:03.748Z,17.50
2018-11-25T00:39:31.870Z,15.30
2018-11-25T00:41:59.936Z,16.83
2018-11-25T00:44:28.007Z,17.47
2018-11-25T00:46:56.075Z,16.70
2018-11-25T00:49:24.212Z,17.67
2018-11-25T00:51:52.297Z,19.57
2018-11-25T00:54:20.355Z,18.27
2018-11-25T00:56:48.418Z,18.10
2018-11-25T00:59:16.676Z,18.53
2018-11-25T01:01:44.760Z,17.40
2018-11-25T01:04:12.827Z,17.27
2018-11-25T01:06:41.817Z,17.57
2018-11-25T01:09:09.896Z,17.53
2018-11-25T01:11:37.956Z,17.73
2018-11-25T01:14:06.035Z,17.23
2018-11-25T01:16:34.119Z,18.17
2018-11-25T01:19:02.192Z,17.73
2018-11-25T01:21:30.256Z,17.67
2018-11-25T01:23:58.318Z,16.43
2018-11-25T01:26:26.425Z,17.20
2018-11-25T01:28:54.491Z,16.03
2018-11-25T01:31:22.568Z,15.67
2018-11-25T01:33:50.667Z,14.87
2018-11-25T01:36:18.723Z,16.47
2018-11-25T01:38:47.019Z,14.67
2018-11-25T01:41:15.102Z,14.50
2018-11-25T01:43:43.168Z,15.50
2018-11-25T01:46:11.251Z,16.57
2018-11-25T01:48:39.507Z,14.00
2018-11-25T01:51:07.843Z,15.33
2018-11-25T01:53:35.944Z,15.57
2018-11-25T01:56:04.032Z,16.30
2018-11-25T01:58:32.098Z,14.83
2018-11-25T02:01:00.203Z,16.00
2018-11-25T02:03:28.561Z,13.90
2018-11-25T02:05:56.627Z,15.40
2018-11-25T02:08:24.700Z,13.07
2018-11-25T02:10:52.864Z,11.83
2018-11-25T02:13:20.927Z,12.47
2018-11-25T02:15:49.255Z,12.40
2018-11-25T02:18:17.371Z,12.33
2018-11-25T02:20:45.448Z,11.40
2018-11-25T02:23:13.529Z,11.23
2018-11-25T02:25:41.631Z,12.77
2018-11-25T02:28:09.932Z,11.90
2018-11-25T02:30:38.024Z,11.63
2018-11-25T02:33:07.371Z,11.20
2018-11-25T02:35:35.468Z,11.23
2018-11-25T02:38:03.559Z,11.60
2018-11-25T02:40:31.679Z,12.33
2018-11-25T02:42:59.744Z,11.60
2018-11-25T02:45:27.844Z,11.70
2018-11-25T02:47:55.910Z,11.53
2018-11-25T02:50:29.337Z,10.77
2018-11-25T02:53:00.205Z,12.77
2018-11-25T02:55:28.275Z,11.83
2018-11-25T02:57:56.326Z,11.90
2018-11-25T03:00:24.411Z,13.27
2018-11-25T03:02:52.719Z,12.43
2018-11-25T03:05:20.801Z,13.33
2018-11-25T03:07:48.871Z,12.00
2018-11-25T03:10:16.959Z,12.60
2018-11-25T03:12:45.062Z,11.30
2018-11-25T03:15:15.325Z,11.87
2018-11-25T03:17:43.420Z,13.40
2018-11-25T03:20:12.570Z,13.37
2018-11-25T03:22:40.891Z,13.37
2018-11-25T03:25:17.019Z,13.10
2018-11-25T03:27:45.091Z,12.77
2018-11-25T03:30:15.091Z,11.73
2018-11-25T03:32:43.579Z,10.67
2018-11-25T03:35:12.280Z,11.20
2018-11-25T03:37:40.351Z,12.00
2018-11-25T03:40:15.902Z,11.90
2018-11-25T03:42:44.001Z,10.70
2018-11-25T03:45:14.103Z,12.23
2018-11-25T03:47:42.185Z,11.83
2018-11-25T03:50:11.083Z,10.23
2018-11-25T03:52:39.199Z,12.03
2018-11-25T03:55:08.640Z,11.13
2018-11-25T03:57:36.833Z,12.00
2018-11-25T04:00:11.251Z,11.13
2018-11-25T04:02:39.312Z,11.43
2018-11-25T04:05:09.094Z,12.30
2018-11-25T04:07:37.184Z,12.40
2018-11-25T04:10:07.903Z,13.10
2018-11-25T04:12:35.972Z,11.93
2018-11-25T04:15:04.207Z,12.93
2018-11-25T04:17:32.255Z,11.50
2018-11-25T04:20:00.375Z,13.20
2018-11-25T04:22:28.487Z,12.50
2018-11-25T04:24:56.543Z,13.30
2018-11-25T04:27:24.649Z,12.40
2018-11-25T04:29:52.722Z,12.13
2018-11-25T04:32:20.779Z,14.43
2018-11-25T04:34:48.872Z,13.03
2018-11-25T04:37:16.933Z,14.73
2018-11-25T04:39:45.308Z,13.30
2018-11-25T04:42:13.396Z,15.17
2018-11-25T04:44:41.605Z,14.50
2018-11-25T04:47:09.727Z,14.30
2018-11-25T04:49:37.809Z,14.27
2018-11-25T04:52:06.008Z,15.83
2018-11-25T04:54:34.086Z,15.97
2018-11-25T04:57:02.172Z,14.43
2018-11-25T04:59:30.289Z,14.77
2018-11-25T05:01:58.383Z,15.33
2018-11-25T05:04:26.460Z,14.30
2018-11-25T05:06:54.529Z,13.57
2018-11-25T05:09:22.595Z,15.63
2018-11-25T05:11:50.656Z,15.23
2018-11-25T05:14:18.727Z,15.53
2018-11-25T05:16:46.873Z,15.10
2018-11-25T05:19:14.960Z,16.07
2018-11-25T05:21:43.060Z,15.20
2018-11-25T05:24:11.127Z,14.80
2018-11-25T05:26:39.219Z,15.07
2018-11-25T05:29:07.329Z,17.07
2018-11-25T05:31:35.415Z,16.23
2018-11-25T05:34:03.480Z,15.93
2018-11-25T05:36:31.553Z,16.70
2018-11-25T05:38:59.630Z,16.90
2018-11-25T05:41:27.725Z,16.30
2018-11-25T05:43:55.805Z,17.00
2018-11-25T05:46:23.889Z,17.17
2018-11-25T05:48:51.953Z,16.50
2018-11-25T05:51:20.044Z,16.33
2018-11-25T05:53:48.131Z,16.40
2018-11-25T05:56:16.201Z,16.87
2018-11-25T05:58:44.273Z,17.63
2018-11-25T06:01:12.328Z,16.97
2018-11-25T06:03:40.387Z,17.27
2018-11-25T06:06:08.514Z,17.23
2018-11-25T06:08:36.696Z,16.50
2018-11-25T06:11:04.761Z,16.20
2018-11-25T06:13:32.824Z,17.00
2018-11-25T06:16:00.918Z,17.83
2018-11-25T06:18:29.003Z,16.03
2018-11-25T06:20:57.190Z,17.03
2018-11-25T06:23:25.247Z,16.83
2018-11-25T06:25:53.605Z,16.23
2018-11-25T06:28:21.672Z,17.70
2018-11-25T06:30:49.755Z,17.13
2018-11-25T06:33:17.831Z,16.60
2018-11-25T06:35:45.937Z,15.93
2018-11-25T06:38:14.281Z,17.07
2018-11-25T06:40:42.334Z,16.77
2018-11-25T06:43:10.404Z,16.50
2018-11-25T06:45:38.540Z,16.30
2018-11-25T06:48:07.084Z,15.83
2018-11-25T06:50:35.475Z,16.93
2018-11-25T06:53:03.751Z,18.07
2018-11-25T06:55:31.828Z,15.07
2018-11-25T06:57:59.892Z,16.97
2018-11-25T07:00:27.955Z,14.30
2018-11-25T07:02:56.331Z,14.73
2018-11-25T07:05:24.418Z,15.20
2018-11-25T07:07:52.501Z,16.40
2018-11-25T07:10:21.544Z,17.13
2018-11-25T07:12:51.508Z,15.53
2018-11-25T07:15:19.586Z,17.43
2018-11-25T07:17:47.731Z,17.47
2018-11-25T07:20:16.689Z,16.73
2018-11-25T07:22:44.789Z,17.50
2018-11-25T07:25:15.829Z,18.53
2018-11-25T07:27:43.902Z,15.47
2018-11-25T07:30:15.279Z,17.47
2018-11-25T07:32:43.356Z,17.10
2018-11-25T07:35:11.419Z,18.37
2018-11-25T07:37:39.572Z,17.53
2018-11-25T07:40:10.175Z,16.90
2018-11-25T07:42:38.231Z,17.87
2018-11-25T07:45:09.152Z,16.13
2018-11-25T07:47:37.297Z,18.83
2018-11-25T07:50:07.080Z,19.20
2018-11-25T07:52:35.179Z,18.67
2018-11-25T07:55:03.274Z,17.83
2018-11-25T07:57:31.367Z,19.30
2018-11-25T07:59:59.527Z,18.30
2018-11-25T08:02:27.861Z,18.20
2018-11-25T08:04:55.721Z,19.83
2018-11-25T08:07:24.115Z,18.40
2018-11-25T08:09:52.203Z,19.07
2018-11-25T08:12:20.264Z,20.77
2018-11-25T08:14:48.336Z,17.47
2018-11-25T08:17:16.408Z,18.60
2018-11-25T08:19:44.482Z,18.73
2018-11-25T08:22:12.559Z,18.23
2018-11-25T08:24:40.763Z,17.40
2018-11-25T08:27:08.847Z,18.33
2018-11-25T08:29:36.948Z,18.33
2018-11-25T08:32:05.260Z,17.97
2018-11-25T08:34:33.457Z,18.73
2018-11-25T08:37:01.553Z,16.97
2018-11-25T08:39:29.652Z,18.30
2018-11-25T08:41:57.763Z,16.97
2018-11-25T08:44:25.835Z,16.77
2018-11-25T08:46:53.915Z,16.50
2018-11-25T08:49:22.020Z,16.63
2018-11-25T08:51:52.521Z,16.60
2018-11-25T08:54:20.593Z,16.20
2018-11-25T08:56:49.487Z,16.60
2018-11-25T08:59:17.613Z,14.27
2018-11-25T09:01:45.726Z,14.60
2018-11-25T09:04:13.797Z,15.27
2018-11-25T09:06:41.892Z,16.93
2018-11-25T09:09:09.991Z,15.03
2018-11-25T09:11:38.109Z,15.93
2018-11-25T09:14:06.187Z,15.43
2018-11-25T09:16:34.263Z,15.97
2018-11-25T09:19:02.348Z,17.23
2018-11-25T09:21:30.460Z,16.20
2018-11-25T09:23:58.529Z,16.13
2018-11-25T09:26:26.643Z,16.70
2018-11-25T09:28:54.712Z,16.60
2018-11-25T09:31:23.632Z,15.53
2018-11-25T09:33:51.700Z,16.07
2018-11-25T09:36:19.796Z,16.10
2018-11-25T09:38:47.867Z,15.73
2018-11-25T09:41:15.977Z,16.67
2018-11-25T09:43:44.036Z,17.67
2018-11-25T09:46:12.100Z,17.13
2018-11-25T09:48:40.232Z,16.37
2018-11-25T09:51:08.331Z,19.37
2018-11-25T09:53:36.473Z,18.60
2018-11-25T09:56:05.310Z,19.30
2018-11-25T09:58:33.383Z,17.37
2018-11-25T10:01:01.494Z,17.27
2018-11-25T10:03:29.556Z,18.53
2018-11-25T10:05:57.653Z,18.40
2018-11-25T10:08:25.732Z,19.37
2018-11-25T10:10:53.862Z,17.53
2018-11-25T10:13:21.981Z,20.50
2018-11-25T10:15:49.999Z,18.43
2018-11-25T10:18:18.148Z,20.50
2018-11-25T10:20:46.264Z,20.17
2018-11-25T10:23:14.340Z,18.90
2018-11-25T10:25:42.417Z,19.13
2018-11-25T10:28:10.514Z,18.47
2018-11-25T10:30:38.567Z,17.40
2018-11-25T10:33:08.025Z,17.73
2018-11-25T10:35:36.129Z,17.90
2018-11-25T10:38:04.580Z,17.80
2018-11-25T10:40:32.688Z,18.53
2018-11-25T10:43:00.775Z,17.97
2018-11-25T10:45:29.055Z,17.80
2018-11-25T10:47:57.893Z,16.33
2018-11-25T10:50:25.970Z,17.77
2018-11-25T10:52:54.043Z,16.13
2018-11-25T10:55:22.528Z,18.60
2018-11-25T10:57:51.501Z,19.17
2018-11-25T11:00:30.938Z,18.80
2018-11-25T11:03:04.415Z,19.03
2018-11-25T11:05:37.999Z,18.03
2018-11-25T11:08:06.996Z,19.83
2018-11-25T11:10:35.095Z,19.37
2018-11-25T11:13:03.197Z,19.43
2018-11-25T11:15:31.289Z,18.13
2018-11-25T11:17:59.420Z,19.17
2018-11-25T11:20:27.475Z,17.47
2018-11-25T11:22:55.560Z,18.13
2018-11-25T11:25:23.645Z,17.93
2018-11-25T11:27:51.743Z,17.13
2018-11-25T11:30:19.791Z,17.27
2018-11-25T11:32:49.521Z,18.97
2018-11-25T11:35:17.581Z,19.10
2018-11-25T11:37:45.707Z,18.33
2018-11-25T11:40:14.558Z,17.80
2018-11-25T11:42:42.674Z,17.23
2018-11-25T11:45:11.848Z,18.77
2018-11-25T11:47:41.302Z,18.87
2018-11-25T11:50:10.828Z,18.27
2018-11-25T11:52:39.164Z,19.53
2018-11-25T11:55:11.472Z,16.93
2018-11-25T11:57:40.351Z,20.87
2018-11-25T12:00:17.487Z,27.40
2018-11-25T12:02:45.549Z,26.00
2018-11-25T12:05:13.667Z,24.20
2018-11-25T12:07:41.735Z,21.93
2018-11-25T12:10:12.924Z,19.23
2018-11-25T12:12:41.053Z,18.33
2018-11-25T12:15:12.125Z,19.07
2018-11-25T12:17:40.344Z,19.97
2018-11-25T12:20:09.301Z,19.30
2018-11-25T12:22:37.799Z,18.40
2018-11-25T12:25:07.892Z,19.77
2018-11-25T12:27:35.999Z,18.47
2018-11-25T12:30:04.961Z,20.30
2018-11-25T12:32:33.044Z,19.10
2018-11-25T12:35:01.115Z,18.97
2018-11-25T12:37:35.963Z,20.50
2018-11-25T12:39:57.603Z,20.13
2018-11-25T12:42:25.735Z,18.80
2018-11-25T12:44:53.804Z,21.60
2018-11-25T12:47:21.892Z,19.50
2018-11-25T12:49:49.971Z,19.57
2018-11-25T12:52:18.152Z,20.87
2018-11-25T12:54:46.297Z,21.77
2018-11-25T12:57:14.369Z,23.33
2018-11-25T12:59:42.549Z,23.03
2018-11-25T13:02:11.343Z,23.40
2018-11-25T13:04:39.415Z,22.80
2018-11-25T13:07:07.524Z,24.00
2018-11-25T13:09:35.627Z,23.43
2018-11-25T13:12:03.842Z,24.57
2018-11-25T13:14:32.220Z,24.40
2018-11-25T13:17:00.300Z,23.87
2018-11-25T13:19:28.587Z,23.70
2018-11-25T13:21:56.730Z,23.40
2018-11-25T13:24:24.815Z,25.30
2018-11-25T13:26:54.456Z,24.13
2018-11-25T13:29:22.754Z,26.57
2018-11-25T13:31:52.655Z,24.13
2018-11-25T13:34:20.860Z,25.43
2018-11-25T13:36:49.186Z,25.73
2018-11-25T13:39:17.268Z,27.93
2018-11-25T13:41:45.339Z,25.23
2018-11-25T13:44:13.428Z,25.17
2018-11-25T13:46:42.216Z,23.67
2018-11-25T13:49:10.340Z,25.60
2018-11-25T13:51:38.436Z,24.37
2018-11-25T13:54:06.532Z,23.03
2018-11-25T13:56:34.631Z,25.17
2018-11-25T13:59:02.729Z,24.13
2018-11-25T14:01:30.853Z,26.10
2018-11-25T14:03:58.929Z,24.83
2018-11-25T14:06:27.008Z,21.83
2018-11-25T14:08:55.431Z,23.13
2018-11-25T14:11:23.538Z,21.60
2018-11-25T14:13:51.590Z,21.73
2018-11-25T14:16:20.666Z,21.67
2018-11-25T14:18:48.741Z,22.03
2018-11-25T14:21:16.833Z,22.80
2018-11-25T14:23:44.919Z,24.10
2018-11-25T14:26:20.404Z,23.37
2018-11-25T14:28:49.196Z,19.03
2018-11-25T14:31:17.345Z,20.97
2018-11-25T14:33:45.391Z,22.23
2018-11-25T14:36:13.463Z,22.83
2018-11-25T14:38:42.415Z,22.57
2018-11-25T14:41:10.484Z,23.70
2018-11-25T14:43:38.599Z,21.67
2018-11-25T14:46:07.754Z,22.33
2018-11-25T14:48:35.836Z,21.40
2018-11-25T14:51:03.919Z,20.23
2018-11-25T14:53:31.998Z,21.17
2018-11-25T14:56:00.079Z,20.70
2018-11-25T14:58:28.152Z,19.77
2018-11-25T15:00:56.256Z,19.17
2018-11-25T15:03:24.375Z,19.23
2018-11-25T15:05:52.452Z,18.47
2018-11-25T15:08:22.383Z,18.40
2018-11-25T15:10:50.833Z,19.60
2018-11-25T15:13:19.037Z,18.43
2018-11-25T15:15:47.118Z,18.47
2018-11-25T15:18:15.207Z,19.37
2018-11-25T15:20:43.532Z,18.60
2018-11-25T15:23:13.652Z,19.03
2018-11-25T15:25:56.687Z,18.57
2018-11-25T15:28:24.803Z,19.00
2018-11-25T15:30:52.896Z,19.00
2018-11-25T15:33:20.977Z,18.53
2018-11-25T15:35:49.104Z,17.83
2018-11-25T15:38:17.192Z,23.87
2018-11-25T15:40:45.261Z,26.43
2018-11-25T15:43:13.340Z,26.73
2018-11-25T15:45:41.951Z,33.70
2018-11-25T15:48:14.583Z,23.57
2018-11-25T15:50:42.652Z,21.20
2018-11-25T15:53:11.295Z,22.93
2018-11-25T15:55:41.427Z,21.63
2018-11-25T15:58:09.591Z,22.27
2018-11-25T16:00:37.691Z,22.70
2018-11-25T16:03:08.033Z,22.90
2018-11-25T16:05:36.536Z,19.87
2018-11-25T16:08:04.660Z,23.53
2018-11-25T16:10:32.745Z,22.70
2018-11-25T16:13:00.878Z,21.77
2018-11-25T16:15:29.656Z,21.07
2018-11-25T16:17:57.779Z,23.77
2018-11-25T16:20:27.118Z,24.60
2018-11-25T16:22:56.720Z,23.63
2018-11-25T16:25:29.420Z,25.27
2018-11-25T16:28:00.713Z,22.80
2018-11-25T16:30:28.852Z,24.77
2018-11-25T16:32:56.954Z,23.67
2018-11-25T16:35:25.016Z,25.17
2018-11-25T16:37:53.380Z,26.60
2018-11-25T16:40:21.528Z,35.33
2018-11-25T16:42:49.658Z,27.53
2018-11-25T16:45:17.820Z,26.83
2018-11-25T16:47:45.909Z,27.93
2018-11-25T16:50:24.481Z,28.80
2018-11-25T16:52:44.373Z,28.40
2018-11-25T16:55:13.317Z,30.27
2018-11-25T16:57:42.179Z,28.53
2018-11-25T17:00:13.704Z,31.07
2018-11-25T17:02:41.864Z,31.40
2018-11-25T17:05:11.663Z,29.70
2018-11-25T17:07:40.568Z,30.10
2018-11-25T17:10:10.279Z,29.97
2018-11-25T17:12:38.686Z,31.87
2018-11-25T17:15:11.778Z,31.53
2018-11-25T17:17:40.138Z,30.30
2018-11-25T17:20:08.871Z,29.90
2018-11-25T17:22:36.948Z,30.13
2018-11-25T17:25:07.090Z,29.37
2018-11-25T17:27:35.400Z,30.00
2018-11-25T17:30:04.371Z,28.70
2018-11-25T17:32:32.444Z,29.07
2018-11-25T17:35:00.526Z,30.00
2018-11-25T17:37:28.684Z,32.00
2018-11-25T17:39:56.873Z,29.53
2018-11-25T17:42:25.008Z,30.23
2018-11-25T17:44:53.063Z,29.70
2018-11-25T17:47:21.120Z,28.40
2018-11-25T17:49:49.194Z,26.43
2018-11-25T17:52:17.266Z,25.97
2018-11-25T17:54:45.375Z,28.53
2018-11-25T17:57:13.441Z,27.90
2018-11-25T17:59:41.560Z,28.80
2018-11-25T18:02:09.641Z,26.70
2018-11-25T18:04:37.712Z,25.33
2018-11-25T18:07:05.817Z,26.97
2018-11-25T18:09:33.920Z,28.97
2018-11-25T18:12:02.028Z,29.33
2018-11-25T18:14:30.112Z,29.70
2018-11-25T18:17:01.585Z,28.30
2018-11-25T18:19:30.013Z,29.17
2018-11-25T18:22:00.351Z,27.17
2018-11-25T18:24:28.475Z,30.13
2018-11-25T18:26:56.547Z,29.77
2018-11-25T18:29:24.617Z,31.23
2018-11-25T18:31:52.697Z,30.87
2018-11-25T18:34:20.848Z,30.57
2018-11-25T18:36:48.983Z,32.77
2018-11-25T18:39:17.098Z,31.77
2018-11-25T18:41:45.176Z,30.10
2018-11-25T18:44:13.240Z,30.77
2018-11-25T18:46:46.569Z,32.70
2018-11-25T18:49:10.477Z,30.43
2018-11-25T18:51:38.568Z,31.43
2018-11-25T18:54:07.720Z,31.47
2018-11-25T18:56:35.808Z,31.60
2018-11-25T18:59:03.889Z,32.70
2018-11-25T19:01:39.076Z,31.40
2018-11-25T19:04:07.152Z,32.60
2018-11-25T19:06:35.289Z,34.33
2018-11-25T19:09:03.652Z,39.10
2018-11-25T19:11:31.725Z,31.40
2018-11-25T19:13:59.820Z,34.07
2018-11-25T19:16:27.940Z,31.30
2018-11-25T19:18:56.028Z,32.57
2018-11-25T19:21:24.396Z,31.03
2018-11-25T19:23:52.509Z,32.77
2018-11-25T19:26:20.615Z,30.53
2018-11-25T19:28:48.689Z,30.70
2018-11-25T19:31:17.028Z,30.77
2018-11-25T19:33:45.111Z,28.80
2018-11-25T19:36:13.218Z,30.63
2018-11-25T19:38:41.292Z,29.97
2018-11-25T19:41:09.617Z,29.77
2018-11-25T19:43:37.743Z,30.70
2018-11-25T19:46:06.098Z,28.50
2018-11-25T19:48:34.281Z,28.93
2018-11-25T19:51:02.395Z,28.27
2018-11-25T19:53:30.511Z,27.67
2018-11-25T19:55:58.899Z,28.03
2018-11-25T19:58:27.008Z,29.43
2018-11-25T20:00:55.108Z,28.93
2018-11-25T20:03:23.186Z,29.30
2018-11-25T20:05:51.275Z,26.73
2018-11-25T20:08:19.377Z,26.07
2018-11-25T20:10:47.447Z,28.10
2018-11-25T20:13:15.565Z,25.80
2018-11-25T20:15:44.060Z,26.53
2018-11-25T20:18:12.158Z,27.77
2018-11-25T20:20:40.218Z,26.70
2018-11-25T20:23:08.311Z,26.20
2018-11-25T20:25:36.406Z,26.93
2018-11-25T20:28:04.515Z,24.70
2018-11-25T20:30:33.345Z,24.60
2018-11-25T20:33:06.784Z,25.43
2018-11-25T20:35:34.915Z,26.63
2018-11-25T20:38:08.513Z,26.13
2018-11-25T20:40:36.844Z,26.33
2018-11-25T20:43:05.072Z,26.50
2018-11-25T20:45:39.268Z,26.93
2018-11-25T20:48:06.689Z,26.93
2018-11-25T20:50:34.815Z,24.20
2018-11-25T20:53:08.357Z,25.53
2018-11-25T20:55:36.655Z,25.80
2018-11-25T20:58:06.223Z,24.73
2018-11-25T21:00:34.320Z,25.20
2018-11-25T21:03:02.426Z,25.83
2018-11-25T21:05:30.505Z,23.90
2018-11-25T21:07:58.559Z,24.67
2018-11-25T21:10:26.652Z,24.77
2018-11-25T21:12:55.191Z,26.10
2018-11-25T21:15:23.580Z,25.80
2018-11-25T21:17:51.663Z,26.30
2018-11-25T21:20:21.099Z,26.30
2018-11-25T21:22:49.452Z,27.47
2018-11-25T21:25:19.386Z,26.37
2018-11-25T21:27:47.536Z,25.13
2018-11-25T21:30:20.861Z,25.77
2018-11-25T21:32:50.204Z,25.93
2018-11-25T21:35:18.308Z,24.93
2018-11-25T21:37:46.596Z,25.60
2018-11-25T21:40:17.472Z,24.97
2018-11-25T21:42:46.158Z,27.30
2018-11-25T21:45:15.119Z,25.23
2018-11-25T21:47:43.276Z,24.80
2018-11-25T21:50:15.595Z,24.83
2018-11-25T21:52:43.695Z,24.73
2018-11-25T21:55:14.596Z,25.47
2018-11-25T21:57:42.681Z,28.40
2018-11-25T22:00:14.379Z,25.40
2018-11-25T22:02:42.549Z,25.43
2018-11-25T22:05:14.451Z,24.30
2018-11-25T22:07:42.576Z,25.80
2018-11-25T22:10:13.708Z,25.83
2018-11-25T22:12:42.508Z,24.50
2018-11-25T22:15:13.133Z,24.60
2018-11-25T22:17:41.414Z,24.27
2018-11-25T22:20:10.683Z,25.77
2018-11-25T22:22:38.819Z,24.57
2018-11-25T22:25:09.152Z,26.23
2018-11-25T22:27:37.235Z,25.30
2018-11-25T22:30:10.569Z,25.83
2018-11-25T22:32:38.675Z,26.20
2018-11-25T22:35:08.999Z,24.97
2018-11-25T22:37:37.082Z,24.80
2018-11-25T22:40:07.372Z,25.13
2018-11-25T22:42:35.499Z,24.67
2018-11-25T22:45:03.659Z,24.17
2018-11-25T22:47:31.968Z,24.43
2018-11-25T22:50:00.085Z,24.90
2018-11-25T22:52:28.241Z,23.97
2018-11-25T22:54:56.332Z,24.00
2018-11-25T22:57:24.442Z,23.30
2018-11-25T22:59:52.526Z,23.60
2018-11-25T23:02:20.642Z,23.53
2018-11-25T23:05:00.277Z,23.27
2018-11-25T23:07:28.387Z,23.37
2018-11-25T23:09:56.616Z,19.70
2018-11-25T23:12:24.696Z,23.10
2018-11-25T23:14:52.792Z,23.07
2018-11-25T23:17:20.896Z,21.93
2018-11-25T23:19:49.023Z,21.33
2018-11-25T23:22:17.121Z,23.27
2018-11-25T23:24:45.234Z,22.30
2018-11-25T23:27:13.407Z,22.67
2018-11-25T23:29:42.189Z,24.50
2018-11-25T23:32:10.282Z,22.57
2018-11-25T23:34:38.660Z,21.27
2018-11-25T23:37:07.948Z,21.80
2018-11-25T23:39:36.019Z,22.23
2018-11-25T23:42:04.166Z,22.33
2018-11-25T23:44:32.267Z,22.13
2018-11-25T23:47:00.348Z,22.10
2018-11-25T23:49:28.475Z,22.10
2018-11-25T23:51:56.573Z,22.67
2018-11-25T23:54:24.707Z,21.87
2018-11-25T23:56:52.841Z,20.97
2018-11-25T23:59:20.931Z,22.23
